Arca — PDHT — position and weather

sailwx.info

Track history (hours):
 
Tides and Currents Weather Stations Pressure Air Temp Water Temp Dewpoint Dewpoint Depression Visibility Wind Speed Wind Dir Waves Ship Positions

Oceanographic research ship Arca (Netherlands)

Detailed information on ship capabilities available from University of Delaware's Ocean Information Center.

Last reported at 2018-Dec-10 19:58 UTC. Time now 2018-Dec-10 20:18 UTC.
Position N 52°06' E 004°16'.

Length 83 m; draft 5 m.

Type: Law enforcement. MMSI: 244454000.

Date/timePositionNaut miles runAvg speedWind from/ knotsBaromVisibWave heightAir tempDewpointWater temp
2018-Dec-10 19:58N 52°06' E 004°16'0 0.0
2018-Dec-10 19:28N 52°06' E 004°16'0 0.0
2018-Dec-10 18:58N 52°06' E 004°16'0 0.0
2018-Dec-10 18:28N 52°06' E 004°16'0 0.0
2018-Dec-10 17:58N 52°06' E 004°16'0 0.0
2018-Dec-10 17:28N 52°06' E 004°16'0 0.0
2018-Dec-10 16:58N 52°06' E 004°16'0 0.0
2018-Dec-10 16:28N 52°06' E 004°16'0 0.0
2018-Dec-10 15:59N 52°06' E 004°16'1 1.2
2018-Dec-10 15:30N 52°06' E 004°15'2 4.7
2018-Dec-10 15:00N 52°08' E 004°12'2 4.0
2018-Dec-10 14:30N 52°09' E 004°10'2 3.5
2018-Dec-10 14:00N 52°07' E 004°10'3 5.8
2018-Dec-10 13:31N 52°09' E 004°13'1 2.3
2018-Dec-10 13:00N 52°08' E 004°12'2 4.5
2018-Dec-10 12:31N 52°07' E 004°15'1 2.0
2018-Dec-10 12:00N 52°06' E 004°16'0 0.0
2018-Dec-10 11:30N 52°06' E 004°16'0 0.0
2018-Dec-10 10:57N 52°06' E 004°16'0 0.0
2018-Dec-10 10:30N 52°06' E 004°16'0 0.0
2018-Dec-10 10:00N 52°06' E 004°16'0 0.0
2018-Dec-10 09:30N 52°06' E 004°16'0 0.0
2018-Dec-10 09:00N 52°06' E 004°16'0 0.0
2018-Dec-10 08:30N 52°06' E 004°16'0 0.0
2018-Dec-10 08:00N 52°06' E 004°16'0 0.0
2018-Dec-10 07:30N 52°06' E 004°16'0 0.0
2018-Dec-10 07:00N 52°06' E 004°16'0 0.0
2018-Dec-10 06:30N 52°06' E 004°16'0 0.0
2018-Dec-10 06:00N 52°06' E 004°16'0 0.0
2018-Dec-10 05:30N 52°06' E 004°16'0 0.0
2018-Dec-10 05:00N 52°06' E 004°16'0 0.0
2018-Dec-10 04:30N 52°06' E 004°16'0 0.0
2018-Dec-10 04:00N 52°06' E 004°16'0 0.0
2018-Dec-10 03:30N 52°06' E 004°16'0 0.0
2018-Dec-10 02:30N 52°06' E 004°16'0 0.0
2018-Dec-10 02:00N 52°06' E 004°16'0 0.0
2018-Dec-10 01:30N 52°06' E 004°16'0 0.0
2018-Dec-10 01:00N 52°06' E 004°16'0 0.0
2018-Dec-10 00:30N 52°06' E 004°16'0 0.0
2018-Dec-09 23:57N 52°06' E 004°16'0 0.0
2018-Dec-09 23:30N 52°06' E 004°16'0 0.0
2018-Dec-09 23:00N 52°06' E 004°16'0 0.0
2018-Dec-09 22:30N 52°06' E 004°16'0 0.0
2018-Dec-09 22:00N 52°06' E 004°16'0 0.0
2018-Dec-09 21:30N 52°06' E 004°16'0 0.0
2018-Dec-09 21:00N 52°06' E 004°16'0 0.0
2018-Dec-09 20:30N 52°06' E 004°16'0 0.0
2018-Dec-09 20:00N 52°06' E 004°16'0 0.0
2018-Dec-09 19:30N 52°06' E 004°16'0 0.0
2018-Dec-09 19:00N 52°06' E 004°16'0 0.0
2018-Dec-09 18:27N 52°06' E 004°16'0 0.0
2018-Dec-09 18:00N 52°06' E 004°16'0 0.0
2018-Dec-09 17:30N 52°06' E 004°16'0 0.0
2018-Dec-09 17:00N 52°06' E 004°16'0 0.0
2018-Dec-09 16:30N 52°06' E 004°16'0 0.0
2018-Dec-09 16:00N 52°06' E 004°16'0 0.0
2018-Dec-09 15:30N 52°06' E 004°16'0 0.0
2018-Dec-09 15:00N 52°06' E 004°16'0 0.0
2018-Dec-09 14:30N 52°06' E 004°16'0 0.0
2018-Dec-09 14:00N 52°06' E 004°16'0 0.0
2018-Dec-09 13:30N 52°06' E 004°16'0 0.0
2018-Dec-09 13:00N 52°06' E 004°16'0 0.0
2018-Dec-09 12:00N 52°06' E 004°16'0 0.0
2018-Dec-09 11:30N 52°06' E 004°16'0 0.0
2018-Dec-09 11:00N 52°06' E 004°16'0 0.0
2018-Dec-09 10:30N 52°06' E 004°16'0 0.0
2018-Dec-09 09:57N 52°06' E 004°16'0 0.0
2018-Dec-09 09:30N 52°06' E 004°16'0 0.0
2018-Dec-09 09:00N 52°06' E 004°16'0 0.0
2018-Dec-09 08:30N 52°06' E 004°16'0 0.0
2018-Dec-09 08:00N 52°06' E 004°16'0 0.0
2018-Dec-09 07:30N 52°06' E 004°16'0 0.0
2018-Dec-09 06:57N 52°06' E 004°16'0 0.0
2018-Dec-09 06:30N 52°06' E 004°16'0 0.0
2018-Dec-09 06:00N 52°06' E 004°16'0 0.0
2018-Dec-09 05:30N 52°06' E 004°16'0 0.0
2018-Dec-09 05:00N 52°06' E 004°16'0 0.0
2018-Dec-09 04:30N 52°06' E 004°16'0 0.0
2018-Dec-09 04:00N 52°06' E 004°16'0 0.0
2018-Dec-09 03:30N 52°06' E 004°16'0 0.0
2018-Dec-09 03:00N 52°06' E 004°16'0 0.0
2018-Dec-09 02:30N 52°06' E 004°16'0 0.0
2018-Dec-09 02:00N 52°06' E 004°16'0 0.0
2018-Dec-09 01:30N 52°06' E 004°16'0 0.0
2018-Dec-09 00:57N 52°06' E 004°16'0 0.0
2018-Dec-09 00:30N 52°06' E 004°16'0 0.0
2018-Dec-09 00:00N 52°06' E 004°16'0 0.0
2018-Dec-08 23:30N 52°06' E 004°16'0 0.0
2018-Dec-08 23:00N 52°06' E 004°16'0 0.0
2018-Dec-08 22:30N 52°06' E 004°16'0 0.0
2018-Dec-08 22:00N 52°06' E 004°16'0 0.0
2018-Dec-08 21:30N 52°06' E 004°16'0 0.0
2018-Dec-08 21:00N 52°06' E 004°16'0 0.0
2018-Dec-08 20:30N 52°06' E 004°16'0 0.0
2018-Dec-08 19:54N 52°06' E 004°16'0 0.0
2018-Dec-08 19:30N 52°06' E 004°16'0 0.0
2018-Dec-08 19:00N 52°06' E 004°16'0 0.0
2018-Dec-08 18:30N 52°06' E 004°16'0 0.0
2018-Dec-08 18:00N 52°06' E 004°16'0 0.0
2018-Dec-08 17:30N 52°06' E 004°16'0 0.0
2018-Dec-08 17:00N 52°06' E 004°16'0 0.0
2018-Dec-08 16:30N 52°06' E 004°16'0 0.0
2018-Dec-08 16:00N 52°06' E 004°16'0 0.0
2018-Dec-08 15:30N 52°06' E 004°16'0 0.0
2018-Dec-08 15:00N 52°06' E 004°16'0 0.0
2018-Dec-08 14:30N 52°06' E 004°16'0 0.0
2018-Dec-08 14:00N 52°06' E 004°16'0 0.0
2018-Dec-08 13:30N 52°06' E 004°16'0 0.0
2018-Dec-08 13:00N 52°06' E 004°16'0 0.0
2018-Dec-08 12:30N 52°06' E 004°16'0 0.0
2018-Dec-08 12:00N 52°06' E 004°16'0 0.0
2018-Dec-08 11:30N 52°06' E 004°16'0 0.0
2018-Dec-08 10:57N 52°06' E 004°16'0 0.0
2018-Dec-08 10:27N 52°06' E 004°16'0 0.0
2018-Dec-08 09:57N 52°06' E 004°16'0 0.0
2018-Dec-08 09:27N 52°06' E 004°16'0 0.0
2018-Dec-08 09:00N 52°06' E 004°16'0 0.0
2018-Dec-08 08:30N 52°06' E 004°16'0 0.0
2018-Dec-08 07:57N 52°06' E 004°16'0 0.0
2018-Dec-08 07:30N 52°06' E 004°16'0 0.0
2018-Dec-08 07:00N 52°06' E 004°16'0 0.0
2018-Dec-08 06:30N 52°06' E 004°16'0 0.0
2018-Dec-08 06:00N 52°06' E 004°16'0 0.0
2018-Dec-08 05:30N 52°06' E 004°16'0 0.0
2018-Dec-08 05:00N 52°06' E 004°16'0 0.0
2018-Dec-08 04:30N 52°06' E 004°16'0 0.0
2018-Dec-08 04:00N 52°06' E 004°16'0 0.0
2018-Dec-08 03:30N 52°06' E 004°16'0 0.0
2018-Dec-08 03:00N 52°06' E 004°16'0 0.0
2018-Dec-08 02:30N 52°06' E 004°16'0 0.0
2018-Dec-08 02:00N 52°06' E 004°16'0 0.0
2018-Dec-08 01:30N 52°06' E 004°16'0 0.0
2018-Dec-08 01:00N 52°06' E 004°16'0 0.0
2018-Dec-08 00:30N 52°06' E 004°16'0 0.0
2018-Dec-08 00:00N 52°06' E 004°16'0 0.0
2018-Dec-07 23:30N 52°06' E 004°16'0 0.0
2018-Dec-07 23:00N 52°06' E 004°16'0 0.0
2018-Dec-07 22:30N 52°06' E 004°16'0 0.0
2018-Dec-07 22:00N 52°06' E 004°16'0 0.0
2018-Dec-07 21:30N 52°06' E 004°16'0 0.0
2018-Dec-07 21:00N 52°06' E 004°16'0 0.0
2018-Dec-07 20:30N 52°06' E 004°16'0 0.0
2018-Dec-07 20:00N 52°06' E 004°16'0 0.0
2018-Dec-07 19:30N 52°06' E 004°16'0 0.0
2018-Dec-07 19:00N 52°06' E 004°16'0 0.0
2018-Dec-07 18:30N 52°06' E 004°16'0 0.0
2018-Dec-07 18:00N 52°06' E 004°16'0 0.0
2018-Dec-07 17:30N 52°06' E 004°16'0 0.0
2018-Dec-07 17:00N 52°06' E 004°16'0 0.0
2018-Dec-07 16:30N 52°06' E 004°16'0 0.0
2018-Dec-07 16:00N 52°06' E 004°16'0 0.0
2018-Dec-07 15:30N 52°06' E 004°16'0 0.0
2018-Dec-07 15:00N 52°06' E 004°16'0 0.0
2018-Dec-07 14:30N 52°06' E 004°16'0 0.0
2018-Dec-07 14:00N 52°06' E 004°16'0 0.0
2018-Dec-07 13:30N 52°06' E 004°16'0 0.0
2018-Dec-07 13:00N 52°06' E 004°16'0 0.0
2018-Dec-07 12:30N 52°06' E 004°16'0 0.0
2018-Dec-07 12:00N 52°06' E 004°16'0 0.0
2018-Dec-07 11:30N 52°06' E 004°16'0 0.0
2018-Dec-07 11:00N 52°06' E 004°16'0 0.0
2018-Dec-07 10:30N 52°06' E 004°16'0 0.0
2018-Dec-07 10:00N 52°06' E 004°16'0 0.0
2018-Dec-07 09:30N 52°06' E 004°16'0 0.0
2018-Dec-07 09:00N 52°06' E 004°16'0 0.0
2018-Dec-07 08:30N 52°06' E 004°16'0 0.0
2018-Dec-07 08:00N 52°06' E 004°16'0 0.0
2018-Dec-07 07:30N 52°06' E 004°16'0 0.0
2018-Dec-07 07:00N 52°06' E 004°16'0 0.0
2018-Dec-07 06:30N 52°06' E 004°16'0 0.0
2018-Dec-07 06:00N 52°06' E 004°16'0 0.0
2018-Dec-07 05:30N 52°06' E 004°16'0 0.0
2018-Dec-07 05:00N 52°06' E 004°16'0 0.0
2018-Dec-07 04:30N 52°06' E 004°16'0 0.0
2018-Dec-07 04:00N 52°06' E 004°16'0 0.0
2018-Dec-07 03:30N 52°06' E 004°16'0 0.0
2018-Dec-07 02:30N 52°06' E 004°16'0 0.0
2018-Dec-07 02:00N 52°06' E 004°16'0 0.0
2018-Dec-07 01:30N 52°06' E 004°16'0 0.0
2018-Dec-07 01:00N 52°06' E 004°16'0 0.0
2018-Dec-07 00:30N 52°06' E 004°16'0 0.0
2018-Dec-07 00:00N 52°06' E 004°16'0 0.0
2018-Dec-06 23:30N 52°06' E 004°16'0 0.0
2018-Dec-06 23:00N 52°06' E 004°16'0 0.0
2018-Dec-06 22:30N 52°06' E 004°16'0 0.0
2018-Dec-06 22:00N 52°06' E 004°16'0 0.0
2018-Dec-06 21:30N 52°06' E 004°16'0 0.0
2018-Dec-06 21:00N 52°06' E 004°16'0 0.0
2018-Dec-06 20:27N 52°06' E 004°16'0 0.0
2018-Dec-06 20:00N 52°06' E 004°16'0 0.0
2018-Dec-06 19:30N 52°06' E 004°16'0 0.0
2018-Dec-06 19:00N 52°06' E 004°16'0 0.0
2018-Dec-06 18:30N 52°06' E 004°16'0 0.0
2018-Dec-06 18:00N 52°06' E 004°16'0 0.0
2018-Dec-06 17:30N 52°06' E 004°16'0 0.0
2018-Dec-06 17:00N 52°06' E 004°16'0 0.0
2018-Dec-06 16:30N 52°06' E 004°16'0 0.0
2018-Dec-06 16:00N 52°06' E 004°16'0 0.0
2018-Dec-06 15:30N 52°06' E 004°16'0 0.0
2018-Dec-06 15:00N 52°06' E 004°16'0 0.0
2018-Dec-06 14:30N 52°06' E 004°16'2 3.0
2018-Dec-06 14:01N 52°07' E 004°15'510.3
2018-Dec-06 13:30N 52°04' E 004°08'3 7.0
2018-Dec-06 13:01N 52°01' E 004°05'0 0.8
2018-Dec-06 12:30N 52°01' E 004°06'1 2.3
2018-Dec-06 12:00N 52°00' E 004°04'1 1.3
2018-Dec-06 11:30N 52°01' E 004°05'1 3.0
2018-Dec-06 11:00N 52°00' E 004°03'3 5.2
2018-Dec-06 10:30N 52°01' E 003°59'2 3.8
2018-Dec-06 10:00N 51°60' E 004°01'2 3.6
2018-Dec-06 09:30N 52°01' E 003°59'2 4.1
2018-Dec-06 09:00N 51°60' E 004°02'2 4.9
2018-Dec-06 08:30N 52°01' E 003°58'3 7.0
2018-Dec-06 08:01N 51°59' E 004°03'3 5.9
2018-Dec-06 07:30N 52°00' E 003°59'2 4.2
2018-Dec-06 07:00N 51°60' E 004°02'1 2.9
2018-Dec-06 06:31N 52°00' E 003°60'0 0.6
2018-Dec-06 06:00N 52°00' E 003°60'3 5.3
2018-Dec-06 05:28N 52°00' E 004°04'0 0.0
2018-Dec-06 04:58N 52°00' E 004°04'0 0.0
2018-Dec-06 04:28N 52°00' E 004°04'0 0.0
2018-Dec-06 03:58N 52°00' E 004°04'0 0.0
2018-Dec-06 03:28N 52°00' E 004°04'0 0.0
2018-Dec-06 02:28N 52°00' E 004°04'0 0.0
2018-Dec-06 01:58N 52°00' E 004°04'0 0.0
2018-Dec-06 01:28N 52°00' E 004°04'0 0.0
2018-Dec-06 00:55N 52°00' E 004°04'0 0.0
2018-Dec-06 00:25N 52°00' E 004°04'0 0.0
2018-Dec-05 23:58N 52°00' E 004°04'0 0.0
2018-Dec-05 23:28N 52°00' E 004°04'0 0.0
2018-Dec-05 22:58N 52°00' E 004°04'0 0.0
2018-Dec-05 22:28N 52°00' E 004°04'0 0.0
2018-Dec-05 21:58N 52°00' E 004°04'0 0.1
2018-Dec-05 21:28N 52°00' E 004°04'0 0.1
2018-Dec-05 20:58N 52°00' E 004°04'0 0.0
2018-Dec-05 20:28N 52°00' E 004°04'0 0.8
2018-Dec-05 20:00N 52°00' E 004°04'4 7.5
2018-Dec-05 19:30N 52°01' E 003°58'4 7.3
2018-Dec-05 19:00N 51°59' E 004°03'3 5.9
2018-Dec-05 18:30N 52°00' E 003°58'3 5.4
2018-Dec-05 18:00N 51°60' E 004°03'3 5.5
2018-Dec-05 17:30N 52°00' E 003°58'3 5.4
2018-Dec-05 17:00N 51°60' E 004°03'1 2.0
2018-Dec-05 16:30N 51°60' E 004°01'2 3.3
2018-Dec-05 16:00N 52°01' E 003°59'2 4.4
2018-Dec-05 15:30N 51°60' E 004°02'3 5.6
2018-Dec-05 15:00N 52°01' E 003°58'3 5.5
2018-Dec-05 14:30N 51°60' E 004°02'2 5.0
2018-Dec-05 14:00N 52°01' E 003°58'2 4.7
2018-Dec-05 13:30N 51°60' E 004°02'3 5.1
2018-Dec-05 13:00N 52°01' E 003°58'2 4.0
2018-Dec-05 12:30N 52°01' E 004°01'3 6.0
2018-Dec-05 12:00N 52°03' E 004°04'5 9.4
2018-Dec-05 11:30N 52°07' E 004°09'1 2.8
2018-Dec-05 11:00N 52°08' E 004°10'0 0.1
2018-Dec-05 10:30N 52°08' E 004°10'0 0.0
2018-Dec-05 10:00N 52°08' E 004°10'0 0.0
2018-Dec-05 09:30N 52°08' E 004°10'0 0.0
2018-Dec-05 09:00N 52°08' E 004°10'0 0.0
2018-Dec-05 08:30N 52°08' E 004°10'0 0.0
2018-Dec-05 08:00N 52°08' E 004°10'0 0.0
2018-Dec-05 07:30N 52°08' E 004°10'0 0.1
2018-Dec-05 07:00N 52°08' E 004°10'1 1.8
2018-Dec-05 06:30N 52°08' E 004°10'4 7.1
2018-Dec-05 06:00N 52°04' E 004°09'0 0.1
2018-Dec-05 05:31N 52°04' E 004°09'0 0.0
2018-Dec-05 05:01N 52°04' E 004°09'0 0.0
2018-Dec-05 04:31N 52°04' E 004°09'0 0.0
2018-Dec-05 04:01N 52°04' E 004°09'0 0.1
2018-Dec-05 03:30N 52°04' E 004°09'0 0.0
2018-Dec-05 03:00N 52°04' E 004°09'0 0.0
2018-Dec-05 02:31N 52°04' E 004°09'0 0.0
2018-Dec-05 02:01N 52°04' E 004°09'0 0.0
2018-Dec-05 01:31N 52°04' E 004°09'0 0.0
2018-Dec-05 01:01N 52°04' E 004°09'0 0.0
2018-Dec-05 00:31N 52°04' E 004°09'0 0.0
2018-Dec-05 00:01N 52°04' E 004°09'0 0.0
2018-Dec-04 23:30N 52°04' E 004°09'0 0.0
2018-Dec-04 23:01N 52°04' E 004°09'0 0.4
2018-Dec-04 22:30N 52°04' E 004°09'5 9.9
2018-Dec-04 22:00N 52°00' E 004°04'3 5.4
2018-Dec-04 21:30N 52°00' E 003°59'2 3.2
2018-Dec-04 21:00N 51°60' E 004°02'1 2.1
2018-Dec-04 20:30N 51°60' E 004°00'0 1.0
2018-Dec-04 20:00N 52°00' E 004°00'0 1.0
2018-Dec-04 19:30N 51°60' E 004°00'1 1.6
2018-Dec-04 19:00N 52°01' E 003°60'1 1.6
2018-Dec-04 18:30N 52°00' E 004°01'1 1.6
2018-Dec-04 18:00N 52°01' E 003°60'1 1.9
2018-Dec-04 17:30N 51°60' E 004°01'1 2.7
2018-Dec-04 17:00N 52°01' E 003°59'2 4.0
2018-Dec-04 16:30N 51°60' E 004°02'3 5.5
2018-Dec-04 16:00N 51°58' E 004°06'3 5.2
2018-Dec-04 15:31N 51°60' E 004°02'3 5.2
2018-Dec-04 15:00N 51°58' E 004°06'2 3.2
2018-Dec-04 14:30N 51°59' E 004°03'1 2.5
2018-Dec-04 14:00N 51°59' E 004°05'1 2.3
2018-Dec-04 13:30N 51°59' E 004°04'1 1.2
2018-Dec-04 13:00N 51°59' E 004°04'1 1.2
2018-Dec-04 12:30N 51°59' E 004°05'1 2.6
2018-Dec-04 12:00N 51°59' E 004°03'2 3.8
2018-Dec-04 11:30N 51°58' E 004°06'3 5.4
2018-Dec-04 11:00N 51°59' E 004°02'3 5.3
2018-Dec-04 10:30N 51°58' E 004°06'1 1.3
2018-Dec-04 10:00N 51°58' E 004°05'0 0.9
2018-Dec-04 09:30N 51°59' E 004°05'1 1.6
2018-Dec-04 09:00N 51°58' E 004°05'1 1.7
2018-Dec-04 08:30N 51°58' E 004°06'1 2.4
2018-Dec-04 08:00N 51°57' E 004°05'1 1.3
2018-Dec-04 07:30N 51°58' E 004°05'0 0.2
2018-Dec-04 07:00N 51°58' E 004°05'0 1.0
2018-Dec-04 06:30N 51°58' E 004°06'1 1.3
2018-Dec-04 06:00N 51°58' E 004°05'2 4.2
2018-Dec-04 05:30N 52°00' E 004°04'0 0.6
2018-Dec-04 04:59N 52°00' E 004°04'0 0.0
2018-Dec-04 04:29N 52°00' E 004°04'0 0.0
2018-Dec-04 03:59N 52°00' E 004°04'0 0.0
2018-Dec-04 03:29N 52°00' E 004°04'0 0.0
2018-Dec-04 02:59N 52°00' E 004°04'0 0.0
2018-Dec-04 02:29N 52°00' E 004°04'0 0.0
2018-Dec-04 01:59N 52°00' E 004°04'0 0.0
2018-Dec-04 01:29N 52°00' E 004°04'0 0.0
2018-Dec-04 00:59N 52°00' E 004°04'0 0.0
2018-Dec-04 00:29N 52°00' E 004°04'0 0.0
2018-Dec-03 23:59N 52°00' E 004°04'0 0.0
2018-Dec-03 23:29N 52°00' E 004°04'0 0.0
2018-Dec-03 22:59N 52°00' E 004°04'0 0.0
2018-Dec-03 22:29N 52°00' E 004°04'0 0.0
2018-Dec-03 21:59N 52°00' E 004°04'0 0.0
2018-Dec-03 21:29N 52°00' E 004°04'0 0.0
2018-Dec-03 20:59N 52°00' E 004°04'0 0.0
2018-Dec-03 20:29N 52°00' E 004°04'0 0.0
2018-Dec-03 19:59N 52°00' E 004°04'0 0.0
2018-Dec-03 19:29N 52°00' E 004°04'0 0.1
2018-Dec-03 19:01N 52°00' E 004°04'3 5.3
2018-Dec-03 18:30N 51°58' E 004°07'1 2.7
2018-Dec-03 18:00N 51°59' E 004°05'0 0.1
2018-Dec-03 17:30N 51°59' E 004°05'1 1.6
2018-Dec-03 17:01N 51°58' E 004°05'0 0.7
2018-Dec-03 16:31N 51°58' E 004°05'0 0.8
2018-Dec-03 16:00N 51°59' E 004°06'0 0.5
2018-Dec-03 15:31N 51°58' E 004°06'0 0.4
2018-Dec-03 15:00N 51°58' E 004°06'0 0.3
2018-Dec-03 14:31N 51°58' E 004°07'0 0.4
2018-Dec-03 14:00N 51°58' E 004°06'0 0.1
2018-Dec-03 13:31N 51°58' E 004°06'0 0.3
2018-Dec-03 12:31N 51°58' E 004°07'3 6.1
2018-Dec-03 12:00N 52°00' E 004°03'510.8
2018-Dec-03 11:30N 52°05' E 004°07'5 9.5
2018-Dec-03 11:01N 52°08' E 004°12'1 2.5
2018-Dec-03 10:31N 52°09' E 004°13'2 4.7
2018-Dec-03 10:00N 52°07' E 004°14'1 2.7
2018-Dec-03 09:28N 52°06' E 004°16'0 0.0
2018-Dec-03 08:58N 52°06' E 004°16'0 0.0
2018-Dec-03 08:28N 52°06' E 004°16'0 0.0
2018-Dec-03 07:58N 52°06' E 004°16'0 0.0
2018-Dec-03 07:28N 52°06' E 004°16'0 0.0
2018-Dec-03 06:58N 52°06' E 004°16'0 0.0
2018-Dec-03 06:28N 52°06' E 004°16'0 0.0
2018-Dec-03 05:58N 52°06' E 004°16'0 0.0
2018-Dec-03 05:28N 52°06' E 004°16'0 0.0
2018-Dec-03 04:28N 52°06' E 004°16'0 0.0
2018-Dec-03 03:58N 52°06' E 004°16'0 0.0
2018-Dec-03 03:28N 52°06' E 004°16'0 0.0
2018-Dec-03 02:58N 52°06' E 004°16'0 0.0
2018-Dec-03 02:28N 52°06' E 004°16'0 0.0
2018-Dec-03 01:58N 52°06' E 004°16'0 0.0
2018-Dec-03 01:25N 52°06' E 004°16'0 0.0
2018-Dec-03 00:28N 52°06' E 004°16'0 0.0
2018-Dec-02 23:58N 52°06' E 004°16'0 0.0
2018-Dec-02 23:28N 52°06' E 004°16'0 0.0
2018-Dec-02 22:58N 52°06' E 004°16'0 0.0
2018-Dec-02 22:28N 52°06' E 004°16'0 0.0
2018-Dec-02 21:58N 52°06' E 004°16'0 0.0
2018-Dec-02 21:28N 52°06' E 004°16'0 0.0
2018-Dec-02 20:58N 52°06' E 004°16'0 0.0
2018-Dec-02 20:28N 52°06' E 004°16'0 0.0
2018-Dec-02 19:58N 52°06' E 004°16'0 0.0
2018-Dec-02 19:28N 52°06' E 004°16'0 0.0
2018-Dec-02 18:58N 52°06' E 004°16'0 0.0
2018-Dec-02 18:28N 52°06' E 004°16'0 0.0
2018-Dec-02 17:58N 52°06' E 004°16'0 0.0
2018-Dec-02 17:28N 52°06' E 004°16'0 0.0
2018-Dec-02 16:58N 52°06' E 004°16'0 0.0
2018-Dec-02 16:28N 52°06' E 004°16'0 0.0
2018-Dec-02 15:58N 52°06' E 004°16'0 0.0
2018-Dec-02 15:28N 52°06' E 004°16'0 0.0
2018-Dec-02 14:58N 52°06' E 004°16'0 0.0
2018-Dec-02 14:28N 52°06' E 004°16'0 0.0
2018-Dec-02 13:58N 52°06' E 004°16'0 0.0
2018-Dec-02 13:28N 52°06' E 004°16'0 0.0
2018-Dec-02 12:58N 52°06' E 004°16'0 0.0
2018-Dec-02 12:28N 52°06' E 004°16'0 0.0
2018-Dec-02 11:58N 52°06' E 004°16'0 0.0
2018-Dec-02 11:28N 52°06' E 004°16'0 0.0
2018-Dec-02 10:58N 52°06' E 004°16'0 0.0
2018-Dec-02 10:29N 52°06' E 004°16'0 0.0
2018-Dec-02 09:58N 52°06' E 004°16'0 0.0
2018-Dec-02 09:28N 52°06' E 004°16'0 0.0
2018-Dec-02 08:58N 52°06' E 004°16'0 0.0
2018-Dec-02 08:28N 52°06' E 004°16'0 0.0
2018-Dec-02 07:58N 52°06' E 004°16'0 0.0
2018-Dec-02 07:28N 52°06' E 004°16'0 0.0
2018-Dec-02 06:28N 52°06' E 004°16'0 0.0
2018-Dec-02 05:58N 52°06' E 004°16'0 0.0
2018-Dec-02 05:28N 52°06' E 004°16'0 0.0
2018-Dec-02 04:58N 52°06' E 004°16'0 0.0
2018-Dec-02 04:25N 52°06' E 004°16'0 0.0
2018-Dec-02 03:58N 52°06' E 004°16'0 0.0
2018-Dec-02 03:28N 52°06' E 004°16'0 0.0
2018-Dec-02 02:58N 52°06' E 004°16'0 0.0
2018-Dec-02 02:28N 52°06' E 004°16'0 0.0
2018-Dec-02 01:58N 52°06' E 004°16'0 0.0
2018-Dec-02 01:28N 52°06' E 004°16'0 0.0
2018-Dec-02 00:58N 52°06' E 004°16'0 0.0
2018-Dec-02 00:28N 52°06' E 004°16'0 0.0
2018-Dec-01 23:58N 52°06' E 004°16'0 0.0
2018-Dec-01 23:28N 52°06' E 004°16'0 0.0
2018-Dec-01 22:58N 52°06' E 004°16'0 0.0
2018-Dec-01 22:28N 52°06' E 004°16'0 0.0
2018-Dec-01 21:58N 52°06' E 004°16'0 0.0
2018-Dec-01 21:28N 52°06' E 004°16'0 0.0
2018-Dec-01 20:55N 52°06' E 004°16'0 0.0
2018-Dec-01 20:28N 52°06' E 004°16'0 0.0
2018-Dec-01 19:58N 52°06' E 004°16'0 0.0
2018-Dec-01 19:28N 52°06' E 004°16'0 0.0
2018-Dec-01 18:58N 52°06' E 004°16'0 0.0
2018-Dec-01 18:28N 52°06' E 004°16'0 0.0
2018-Dec-01 17:58N 52°06' E 004°16'0 0.0
2018-Dec-01 17:28N 52°06' E 004°16'0 0.0
2018-Dec-01 16:58N 52°06' E 004°16'0 0.0
2018-Dec-01 16:28N 52°06' E 004°16'0 0.0
2018-Dec-01 15:58N 52°06' E 004°16'0 0.0
2018-Dec-01 15:28N 52°06' E 004°16'0 0.0
2018-Dec-01 14:58N 52°06' E 004°16'0 0.0
2018-Dec-01 14:28N 52°06' E 004°16'0 0.0
2018-Dec-01 13:58N 52°06' E 004°16'0 0.0
2018-Dec-01 13:28N 52°06' E 004°16'0 0.0
2018-Dec-01 12:58N 52°06' E 004°16'0 0.0
2018-Dec-01 12:28N 52°06' E 004°16'0 0.0
2018-Dec-01 11:58N 52°06' E 004°16'0 0.0
2018-Dec-01 11:28N 52°06' E 004°16'0 0.0
2018-Dec-01 10:58N 52°06' E 004°16'0 0.0
2018-Dec-01 10:28N 52°06' E 004°16'0 0.0
2018-Dec-01 09:58N 52°06' E 004°16'0 0.0
2018-Dec-01 09:28N 52°06' E 004°16'0 0.0
2018-Dec-01 08:58N 52°06' E 004°16'0 0.0
2018-Dec-01 08:28N 52°06' E 004°16'0 0.0
2018-Dec-01 07:58N 52°06' E 004°16'0 0.0
2018-Dec-01 07:28N 52°06' E 004°16'0 0.0
2018-Dec-01 06:58N 52°06' E 004°16'0 0.0
2018-Dec-01 06:28N 52°06' E 004°16'0 0.0
2018-Dec-01 05:58N 52°06' E 004°16'0 0.0
2018-Dec-01 05:28N 52°06' E 004°16'0 0.0
2018-Dec-01 04:58N 52°06' E 004°16'0 0.0
2018-Dec-01 04:28N 52°06' E 004°16'0 0.0
2018-Dec-01 03:58N 52°06' E 004°16'0 0.0
2018-Dec-01 03:28N 52°06' E 004°16'0 0.0
2018-Dec-01 02:58N 52°06' E 004°16'0 0.0
2018-Dec-01 02:28N 52°06' E 004°16'0 0.0
2018-Dec-01 01:58N 52°06' E 004°16'0 0.0
2018-Dec-01 01:28N 52°06' E 004°16'0 0.0
2018-Dec-01 00:58N 52°06' E 004°16'0 0.0
2018-Dec-01 00:28N 52°06' E 004°16'0 0.0
2018-Nov-30 23:58N 52°06' E 004°16'0 0.0
2018-Nov-30 23:28N 52°06' E 004°16'0 0.0
2018-Nov-30 22:58N 52°06' E 004°16'0 0.0
2018-Nov-30 22:28N 52°06' E 004°16'0 0.0
2018-Nov-30 21:58N 52°06' E 004°16'0 0.0
2018-Nov-30 21:28N 52°06' E 004°16'0 0.0
2018-Nov-30 20:58N 52°06' E 004°16'0 0.0
2018-Nov-30 20:28N 52°06' E 004°16'0 0.0
2018-Nov-30 19:58N 52°06' E 004°16'  
Track history (hours):
 
Tides and Currents Weather Stations Pressure Air Temp Water Temp Dewpoint Dewpoint Depression Visibility Wind Speed Wind Dir Waves Ship Positions

Oceanographic research ship Arca (Netherlands)

Detailed information on ship capabilities available from University of Delaware's Ocean Information Center.

Last reported at 2018-Dec-10 19:58 UTC. Time now 2018-Dec-10 20:18 UTC.
Position N 52°06' E 004°16'.

Length 83 m; draft 5 m.

Type: Law enforcement. MMSI: 244454000.

Date/timePositionNaut miles runAvg speedWind from/ knotsBaromVisibWave heightAir tempDewpointWater temp
2018-Dec-10 19:58N 52°06' E 004°16'0 0.0
2018-Dec-10 19:28N 52°06' E 004°16'0 0.0
2018-Dec-10 18:58N 52°06' E 004°16'0 0.0
2018-Dec-10 18:28N 52°06' E 004°16'0 0.0
2018-Dec-10 17:58N 52°06' E 004°16'0 0.0
2018-Dec-10 17:28N 52°06' E 004°16'0 0.0
2018-Dec-10 16:58N 52°06' E 004°16'0 0.0
2018-Dec-10 16:28N 52°06' E 004°16'0 0.0
2018-Dec-10 15:59N 52°06' E 004°16'1 1.2
2018-Dec-10 15:30N 52°06' E 004°15'2 4.7
2018-Dec-10 15:00N 52°08' E 004°12'2 4.0
2018-Dec-10 14:30N 52°09' E 004°10'2 3.5
2018-Dec-10 14:00N 52°07' E 004°10'3 5.8
2018-Dec-10 13:31N 52°09' E 004°13'1 2.3
2018-Dec-10 13:00N 52°08' E 004°12'2 4.5
2018-Dec-10 12:31N 52°07' E 004°15'1 2.0
2018-Dec-10 12:00N 52°06' E 004°16'0 0.0
2018-Dec-10 11:30N 52°06' E 004°16'0 0.0
2018-Dec-10 10:57N 52°06' E 004°16'0 0.0
2018-Dec-10 10:30N 52°06' E 004°16'0 0.0
2018-Dec-10 10:00N 52°06' E 004°16'0 0.0
2018-Dec-10 09:30N 52°06' E 004°16'0 0.0
2018-Dec-10 09:00N 52°06' E 004°16'0 0.0
2018-Dec-10 08:30N 52°06' E 004°16'0 0.0
2018-Dec-10 08:00N 52°06' E 004°16'0 0.0
2018-Dec-10 07:30N 52°06' E 004°16'0 0.0
2018-Dec-10 07:00N 52°06' E 004°16'0 0.0
2018-Dec-10 06:30N 52°06' E 004°16'0 0.0
2018-Dec-10 06:00N 52°06' E 004°16'0 0.0
2018-Dec-10 05:30N 52°06' E 004°16'0 0.0
2018-Dec-10 05:00N 52°06' E 004°16'0 0.0
2018-Dec-10 04:30N 52°06' E 004°16'0 0.0
2018-Dec-10 04:00N 52°06' E 004°16'0 0.0
2018-Dec-10 03:30N 52°06' E 004°16'0 0.0
2018-Dec-10 02:30N 52°06' E 004°16'0 0.0
2018-Dec-10 02:00N 52°06' E 004°16'0 0.0
2018-Dec-10 01:30N 52°06' E 004°16'0 0.0
2018-Dec-10 01:00N 52°06' E 004°16'0 0.0
2018-Dec-10 00:30N 52°06' E 004°16'0 0.0
2018-Dec-09 23:57N 52°06' E 004°16'0 0.0
2018-Dec-09 23:30N 52°06' E 004°16'0 0.0
2018-Dec-09 23:00N 52°06' E 004°16'0 0.0
2018-Dec-09 22:30N 52°06' E 004°16'0 0.0
2018-Dec-09 22:00N 52°06' E 004°16'0 0.0
2018-Dec-09 21:30N 52°06' E 004°16'0 0.0
2018-Dec-09 21:00N 52°06' E 004°16'0 0.0
2018-Dec-09 20:30N 52°06' E 004°16'0 0.0
2018-Dec-09 20:00N 52°06' E 004°16'0 0.0
2018-Dec-09 19:30N 52°06' E 004°16'0 0.0
2018-Dec-09 19:00N 52°06' E 004°16'0 0.0
2018-Dec-09 18:27N 52°06' E 004°16'0 0.0
2018-Dec-09 18:00N 52°06' E 004°16'0 0.0
2018-Dec-09 17:30N 52°06' E 004°16'0 0.0
2018-Dec-09 17:00N 52°06' E 004°16'0 0.0
2018-Dec-09 16:30N 52°06' E 004°16'0 0.0
2018-Dec-09 16:00N 52°06' E 004°16'0 0.0
2018-Dec-09 15:30N 52°06' E 004°16'0 0.0
2018-Dec-09 15:00N 52°06' E 004°16'0 0.0
2018-Dec-09 14:30N 52°06' E 004°16'0 0.0
2018-Dec-09 14:00N 52°06' E 004°16'0 0.0
2018-Dec-09 13:30N 52°06' E 004°16'0 0.0
2018-Dec-09 13:00N 52°06' E 004°16'0 0.0
2018-Dec-09 12:00N 52°06' E 004°16'0 0.0
2018-Dec-09 11:30N 52°06' E 004°16'0 0.0
2018-Dec-09 11:00N 52°06' E 004°16'0 0.0
2018-Dec-09 10:30N 52°06' E 004°16'0 0.0
2018-Dec-09 09:57N 52°06' E 004°16'0 0.0
2018-Dec-09 09:30N 52°06' E 004°16'0 0.0
2018-Dec-09 09:00N 52°06' E 004°16'0 0.0
2018-Dec-09 08:30N 52°06' E 004°16'0 0.0
2018-Dec-09 08:00N 52°06' E 004°16'0 0.0
2018-Dec-09 07:30N 52°06' E 004°16'0 0.0
2018-Dec-09 06:57N 52°06' E 004°16'0 0.0
2018-Dec-09 06:30N 52°06' E 004°16'0 0.0
2018-Dec-09 06:00N 52°06' E 004°16'0 0.0
2018-Dec-09 05:30N 52°06' E 004°16'0 0.0
2018-Dec-09 05:00N 52°06' E 004°16'0 0.0
2018-Dec-09 04:30N 52°06' E 004°16'0 0.0
2018-Dec-09 04:00N 52°06' E 004°16'0 0.0
2018-Dec-09 03:30N 52°06' E 004°16'0 0.0
2018-Dec-09 03:00N 52°06' E 004°16'0 0.0
2018-Dec-09 02:30N 52°06' E 004°16'0 0.0
2018-Dec-09 02:00N 52°06' E 004°16'0 0.0
2018-Dec-09 01:30N 52°06' E 004°16'0 0.0
2018-Dec-09 00:57N 52°06' E 004°16'0 0.0
2018-Dec-09 00:30N 52°06' E 004°16'0 0.0
2018-Dec-09 00:00N 52°06' E 004°16'0 0.0
2018-Dec-08 23:30N 52°06' E 004°16'0 0.0
2018-Dec-08 23:00N 52°06' E 004°16'0 0.0
2018-Dec-08 22:30N 52°06' E 004°16'0 0.0
2018-Dec-08 22:00N 52°06' E 004°16'0 0.0
2018-Dec-08 21:30N 52°06' E 004°16'0 0.0
2018-Dec-08 21:00N 52°06' E 004°16'0 0.0
2018-Dec-08 20:30N 52°06' E 004°16'0 0.0
2018-Dec-08 19:54N 52°06' E 004°16'0 0.0
2018-Dec-08 19:30N 52°06' E 004°16'0 0.0
2018-Dec-08 19:00N 52°06' E 004°16'0 0.0
2018-Dec-08 18:30N 52°06' E 004°16'0 0.0
2018-Dec-08 18:00N 52°06' E 004°16'0 0.0
2018-Dec-08 17:30N 52°06' E 004°16'0 0.0
2018-Dec-08 17:00N 52°06' E 004°16'0 0.0
2018-Dec-08 16:30N 52°06' E 004°16'0 0.0
2018-Dec-08 16:00N 52°06' E 004°16'0 0.0
2018-Dec-08 15:30N 52°06' E 004°16'0 0.0
2018-Dec-08 15:00N 52°06' E 004°16'0 0.0
2018-Dec-08 14:30N 52°06' E 004°16'0 0.0
2018-Dec-08 14:00N 52°06' E 004°16'0 0.0
2018-Dec-08 13:30N 52°06' E 004°16'0 0.0
2018-Dec-08 13:00N 52°06' E 004°16'0 0.0
2018-Dec-08 12:30N 52°06' E 004°16'0 0.0
2018-Dec-08 12:00N 52°06' E 004°16'0 0.0
2018-Dec-08 11:30N 52°06' E 004°16'0 0.0
2018-Dec-08 10:57N 52°06' E 004°16'0 0.0
2018-Dec-08 10:27N 52°06' E 004°16'0 0.0
2018-Dec-08 09:57N 52°06' E 004°16'0 0.0
2018-Dec-08 09:27N 52°06' E 004°16'0 0.0
2018-Dec-08 09:00N 52°06' E 004°16'0 0.0
2018-Dec-08 08:30N 52°06' E 004°16'0 0.0
2018-Dec-08 07:57N 52°06' E 004°16'0 0.0
2018-Dec-08 07:30N 52°06' E 004°16'0 0.0
2018-Dec-08 07:00N 52°06' E 004°16'0 0.0
2018-Dec-08 06:30N 52°06' E 004°16'0 0.0
2018-Dec-08 06:00N 52°06' E 004°16'0 0.0
2018-Dec-08 05:30N 52°06' E 004°16'0 0.0
2018-Dec-08 05:00N 52°06' E 004°16'0 0.0
2018-Dec-08 04:30N 52°06' E 004°16'0 0.0
2018-Dec-08 04:00N 52°06' E 004°16'0 0.0
2018-Dec-08 03:30N 52°06' E 004°16'0 0.0
2018-Dec-08 03:00N 52°06' E 004°16'0 0.0
2018-Dec-08 02:30N 52°06' E 004°16'0 0.0
2018-Dec-08 02:00N 52°06' E 004°16'0 0.0
2018-Dec-08 01:30N 52°06' E 004°16'0 0.0
2018-Dec-08 01:00N 52°06' E 004°16'0 0.0
2018-Dec-08 00:30N 52°06' E 004°16'0 0.0
2018-Dec-08 00:00N 52°06' E 004°16'0 0.0
2018-Dec-07 23:30N 52°06' E 004°16'0 0.0
2018-Dec-07 23:00N 52°06' E 004°16'0 0.0
2018-Dec-07 22:30N 52°06' E 004°16'0 0.0
2018-Dec-07 22:00N 52°06' E 004°16'0 0.0
2018-Dec-07 21:30N 52°06' E 004°16'0 0.0
2018-Dec-07 21:00N 52°06' E 004°16'0 0.0
2018-Dec-07 20:30N 52°06' E 004°16'0 0.0
2018-Dec-07 20:00N 52°06' E 004°16'0 0.0
2018-Dec-07 19:30N 52°06' E 004°16'0 0.0
2018-Dec-07 19:00N 52°06' E 004°16'0 0.0
2018-Dec-07 18:30N 52°06' E 004°16'0 0.0
2018-Dec-07 18:00N 52°06' E 004°16'0 0.0
2018-Dec-07 17:30N 52°06' E 004°16'0 0.0
2018-Dec-07 17:00N 52°06' E 004°16'0 0.0
2018-Dec-07 16:30N 52°06' E 004°16'0 0.0
2018-Dec-07 16:00N 52°06' E 004°16'0 0.0
2018-Dec-07 15:30N 52°06' E 004°16'0 0.0
2018-Dec-07 15:00N 52°06' E 004°16'0 0.0
2018-Dec-07 14:30N 52°06' E 004°16'0 0.0
2018-Dec-07 14:00N 52°06' E 004°16'0 0.0
2018-Dec-07 13:30N 52°06' E 004°16'0 0.0
2018-Dec-07 13:00N 52°06' E 004°16'0 0.0
2018-Dec-07 12:30N 52°06' E 004°16'0 0.0
2018-Dec-07 12:00N 52°06' E 004°16'0 0.0
2018-Dec-07 11:30N 52°06' E 004°16'0 0.0
2018-Dec-07 11:00N 52°06' E 004°16'0 0.0
2018-Dec-07 10:30N 52°06' E 004°16'0 0.0
2018-Dec-07 10:00N 52°06' E 004°16'0 0.0
2018-Dec-07 09:30N 52°06' E 004°16'0 0.0
2018-Dec-07 09:00N 52°06' E 004°16'0 0.0
2018-Dec-07 08:30N 52°06' E 004°16'0 0.0
2018-Dec-07 08:00N 52°06' E 004°16'0 0.0
2018-Dec-07 07:30N 52°06' E 004°16'0 0.0
2018-Dec-07 07:00N 52°06' E 004°16'0 0.0
2018-Dec-07 06:30N 52°06' E 004°16'0 0.0
2018-Dec-07 06:00N 52°06' E 004°16'0 0.0
2018-Dec-07 05:30N 52°06' E 004°16'0 0.0
2018-Dec-07 05:00N 52°06' E 004°16'0 0.0
2018-Dec-07 04:30N 52°06' E 004°16'0 0.0
2018-Dec-07 04:00N 52°06' E 004°16'0 0.0
2018-Dec-07 03:30N 52°06' E 004°16'0 0.0
2018-Dec-07 02:30N 52°06' E 004°16'0 0.0
2018-Dec-07 02:00N 52°06' E 004°16'0 0.0
2018-Dec-07 01:30N 52°06' E 004°16'0 0.0
2018-Dec-07 01:00N 52°06' E 004°16'0 0.0
2018-Dec-07 00:30N 52°06' E 004°16'0 0.0
2018-Dec-07 00:00N 52°06' E 004°16'0 0.0
2018-Dec-06 23:30N 52°06' E 004°16'0 0.0
2018-Dec-06 23:00N 52°06' E 004°16'0 0.0
2018-Dec-06 22:30N 52°06' E 004°16'0 0.0
2018-Dec-06 22:00N 52°06' E 004°16'0 0.0
2018-Dec-06 21:30N 52°06' E 004°16'0 0.0
2018-Dec-06 21:00N 52°06' E 004°16'0 0.0
2018-Dec-06 20:27N 52°06' E 004°16'0 0.0
2018-Dec-06 20:00N 52°06' E 004°16'0 0.0
2018-Dec-06 19:30N 52°06' E 004°16'0 0.0
2018-Dec-06 19:00N 52°06' E 004°16'0 0.0
2018-Dec-06 18:30N 52°06' E 004°16'0 0.0
2018-Dec-06 18:00N 52°06' E 004°16'0 0.0
2018-Dec-06 17:30N 52°06' E 004°16'0 0.0
2018-Dec-06 17:00N 52°06' E 004°16'0 0.0
2018-Dec-06 16:30N 52°06' E 004°16'0 0.0
2018-Dec-06 16:00N 52°06' E 004°16'0 0.0
2018-Dec-06 15:30N 52°06' E 004°16'0 0.0
2018-Dec-06 15:00N 52°06' E 004°16'0 0.0
2018-Dec-06 14:30N 52°06' E 004°16'2 3.0
2018-Dec-06 14:01N 52°07' E 004°15'510.3
2018-Dec-06 13:30N 52°04' E 004°08'3 7.0
2018-Dec-06 13:01N 52°01' E 004°05'0 0.8
2018-Dec-06 12:30N 52°01' E 004°06'1 2.3
2018-Dec-06 12:00N 52°00' E 004°04'1 1.3
2018-Dec-06 11:30N 52°01' E 004°05'1 3.0
2018-Dec-06 11:00N 52°00' E 004°03'3 5.2
2018-Dec-06 10:30N 52°01' E 003°59'2 3.8
2018-Dec-06 10:00N 51°60' E 004°01'2 3.6
2018-Dec-06 09:30N 52°01' E 003°59'2 4.1
2018-Dec-06 09:00N 51°60' E 004°02'2 4.9
2018-Dec-06 08:30N 52°01' E 003°58'3 7.0
2018-Dec-06 08:01N 51°59' E 004°03'3 5.9
2018-Dec-06 07:30N 52°00' E 003°59'2 4.2
2018-Dec-06 07:00N 51°60' E 004°02'1 2.9
2018-Dec-06 06:31N 52°00' E 003°60'0 0.6
2018-Dec-06 06:00N 52°00' E 003°60'3 5.3
2018-Dec-06 05:28N 52°00' E 004°04'0 0.0
2018-Dec-06 04:58N 52°00' E 004°04'0 0.0
2018-Dec-06 04:28N 52°00' E 004°04'0 0.0
2018-Dec-06 03:58N 52°00' E 004°04'0 0.0
2018-Dec-06 03:28N 52°00' E 004°04'0 0.0
2018-Dec-06 02:28N 52°00' E 004°04'0 0.0
2018-Dec-06 01:58N 52°00' E 004°04'0 0.0
2018-Dec-06 01:28N 52°00' E 004°04'0 0.0
2018-Dec-06 00:55N 52°00' E 004°04'0 0.0
2018-Dec-06 00:25N 52°00' E 004°04'0 0.0
2018-Dec-05 23:58N 52°00' E 004°04'0 0.0
2018-Dec-05 23:28N 52°00' E 004°04'0 0.0
2018-Dec-05 22:58N 52°00' E 004°04'0 0.0
2018-Dec-05 22:28N 52°00' E 004°04'0 0.0
2018-Dec-05 21:58N 52°00' E 004°04'0 0.1
2018-Dec-05 21:28N 52°00' E 004°04'0 0.1
2018-Dec-05 20:58N 52°00' E 004°04'0 0.0
2018-Dec-05 20:28N 52°00' E 004°04'0 0.8
2018-Dec-05 20:00N 52°00' E 004°04'4 7.5
2018-Dec-05 19:30N 52°01' E 003°58'4 7.3
2018-Dec-05 19:00N 51°59' E 004°03'3 5.9
2018-Dec-05 18:30N 52°00' E 003°58'3 5.4
2018-Dec-05 18:00N 51°60' E 004°03'3 5.5
2018-Dec-05 17:30N 52°00' E 003°58'3 5.4
2018-Dec-05 17:00N 51°60' E 004°03'1 2.0
2018-Dec-05 16:30N 51°60' E 004°01'2 3.3
2018-Dec-05 16:00N 52°01' E 003°59'2 4.4
2018-Dec-05 15:30N 51°60' E 004°02'3 5.6
2018-Dec-05 15:00N 52°01' E 003°58'3 5.5
2018-Dec-05 14:30N 51°60' E 004°02'2 5.0
2018-Dec-05 14:00N 52°01' E 003°58'2 4.7
2018-Dec-05 13:30N 51°60' E 004°02'3 5.1
2018-Dec-05 13:00N 52°01' E 003°58'2 4.0
2018-Dec-05 12:30N 52°01' E 004°01'3 6.0
2018-Dec-05 12:00N 52°03' E 004°04'5 9.4
2018-Dec-05 11:30N 52°07' E 004°09'1 2.8
2018-Dec-05 11:00N 52°08' E 004°10'0 0.1
2018-Dec-05 10:30N 52°08' E 004°10'0 0.0
2018-Dec-05 10:00N 52°08' E 004°10'0 0.0
2018-Dec-05 09:30N 52°08' E 004°10'0 0.0
2018-Dec-05 09:00N 52°08' E 004°10'0 0.0
2018-Dec-05 08:30N 52°08' E 004°10'0 0.0
2018-Dec-05 08:00N 52°08' E 004°10'0 0.0
2018-Dec-05 07:30N 52°08' E 004°10'0 0.1
2018-Dec-05 07:00N 52°08' E 004°10'1 1.8
2018-Dec-05 06:30N 52°08' E 004°10'4 7.1
2018-Dec-05 06:00N 52°04' E 004°09'0 0.1
2018-Dec-05 05:31N 52°04' E 004°09'0 0.0
2018-Dec-05 05:01N 52°04' E 004°09'0 0.0
2018-Dec-05 04:31N 52°04' E 004°09'0 0.0
2018-Dec-05 04:01N 52°04' E 004°09'0 0.1
2018-Dec-05 03:30N 52°04' E 004°09'0 0.0
2018-Dec-05 03:00N 52°04' E 004°09'0 0.0
2018-Dec-05 02:31N 52°04' E 004°09'0 0.0
2018-Dec-05 02:01N 52°04' E 004°09'0 0.0
2018-Dec-05 01:31N 52°04' E 004°09'0 0.0
2018-Dec-05 01:01N 52°04' E 004°09'0 0.0
2018-Dec-05 00:31N 52°04' E 004°09'0 0.0
2018-Dec-05 00:01N 52°04' E 004°09'0 0.0
2018-Dec-04 23:30N 52°04' E 004°09'0 0.0
2018-Dec-04 23:01N 52°04' E 004°09'0 0.4
2018-Dec-04 22:30N 52°04' E 004°09'5 9.9
2018-Dec-04 22:00N 52°00' E 004°04'3 5.4
2018-Dec-04 21:30N 52°00' E 003°59'2 3.2
2018-Dec-04 21:00N 51°60' E 004°02'1 2.1
2018-Dec-04 20:30N 51°60' E 004°00'0 1.0
2018-Dec-04 20:00N 52°00' E 004°00'0 1.0
2018-Dec-04 19:30N 51°60' E 004°00'1 1.6
2018-Dec-04 19:00N 52°01' E 003°60'1 1.6
2018-Dec-04 18:30N 52°00' E 004°01'1 1.6
2018-Dec-04 18:00N 52°01' E 003°60'1 1.9
2018-Dec-04 17:30N 51°60' E 004°01'1 2.7
2018-Dec-04 17:00N 52°01' E 003°59'2 4.0
2018-Dec-04 16:30N 51°60' E 004°02'3 5.5
2018-Dec-04 16:00N 51°58' E 004°06'3 5.2
2018-Dec-04 15:31N 51°60' E 004°02'3 5.2
2018-Dec-04 15:00N 51°58' E 004°06'2 3.2
2018-Dec-04 14:30N 51°59' E 004°03'1 2.5
2018-Dec-04 14:00N 51°59' E 004°05'1 2.3
2018-Dec-04 13:30N 51°59' E 004°04'1 1.2
2018-Dec-04 13:00N 51°59' E 004°04'1 1.2
2018-Dec-04 12:30N 51°59' E 004°05'1 2.6
2018-Dec-04 12:00N 51°59' E 004°03'2 3.8
2018-Dec-04 11:30N 51°58' E 004°06'3 5.4
2018-Dec-04 11:00N 51°59' E 004°02'3 5.3
2018-Dec-04 10:30N 51°58' E 004°06'1 1.3
2018-Dec-04 10:00N 51°58' E 004°05'0 0.9
2018-Dec-04 09:30N 51°59' E 004°05'1 1.6
2018-Dec-04 09:00N 51°58' E 004°05'1 1.7
2018-Dec-04 08:30N 51°58' E 004°06'1 2.4
2018-Dec-04 08:00N 51°57' E 004°05'1 1.3
2018-Dec-04 07:30N 51°58' E 004°05'0 0.2
2018-Dec-04 07:00N 51°58' E 004°05'0 1.0
2018-Dec-04 06:30N 51°58' E 004°06'1 1.3
2018-Dec-04 06:00N 51°58' E 004°05'2 4.2
2018-Dec-04 05:30N 52°00' E 004°04'0 0.6
2018-Dec-04 04:59N 52°00' E 004°04'0 0.0
2018-Dec-04 04:29N 52°00' E 004°04'0 0.0
2018-Dec-04 03:59N 52°00' E 004°04'0 0.0
2018-Dec-04 03:29N 52°00' E 004°04'0 0.0
2018-Dec-04 02:59N 52°00' E 004°04'0 0.0
2018-Dec-04 02:29N 52°00' E 004°04'0 0.0
2018-Dec-04 01:59N 52°00' E 004°04'0 0.0
2018-Dec-04 01:29N 52°00' E 004°04'0 0.0
2018-Dec-04 00:59N 52°00' E 004°04'0 0.0
2018-Dec-04 00:29N 52°00' E 004°04'0 0.0
2018-Dec-03 23:59N 52°00' E 004°04'0 0.0
2018-Dec-03 23:29N 52°00' E 004°04'0 0.0
2018-Dec-03 22:59N 52°00' E 004°04'0 0.0
2018-Dec-03 22:29N 52°00' E 004°04'0 0.0
2018-Dec-03 21:59N 52°00' E 004°04'0 0.0
2018-Dec-03 21:29N 52°00' E 004°04'0 0.0
2018-Dec-03 20:59N 52°00' E 004°04'0 0.0
2018-Dec-03 20:29N 52°00' E 004°04'0 0.0
2018-Dec-03 19:59N 52°00' E 004°04'0 0.0
2018-Dec-03 19:29N 52°00' E 004°04'0 0.1
2018-Dec-03 19:01N 52°00' E 004°04'3 5.3
2018-Dec-03 18:30N 51°58' E 004°07'1 2.7
2018-Dec-03 18:00N 51°59' E 004°05'0 0.1
2018-Dec-03 17:30N 51°59' E 004°05'1 1.6
2018-Dec-03 17:01N 51°58' E 004°05'0 0.7
2018-Dec-03 16:31N 51°58' E 004°05'0 0.8
2018-Dec-03 16:00N 51°59' E 004°06'0 0.5
2018-Dec-03 15:31N 51°58' E 004°06'0 0.4
2018-Dec-03 15:00N 51°58' E 004°06'0 0.3
2018-Dec-03 14:31N 51°58' E 004°07'0 0.4
2018-Dec-03 14:00N 51°58' E 004°06'0 0.1
2018-Dec-03 13:31N 51°58' E 004°06'0 0.3
2018-Dec-03 12:31N 51°58' E 004°07'3 6.1
2018-Dec-03 12:00N 52°00' E 004°03'510.8
2018-Dec-03 11:30N 52°05' E 004°07'5 9.5
2018-Dec-03 11:01N 52°08' E 004°12'1 2.5
2018-Dec-03 10:31N 52°09' E 004°13'2 4.7
2018-Dec-03 10:00N 52°07' E 004°14'1 2.7
2018-Dec-03 09:28N 52°06' E 004°16'0 0.0
2018-Dec-03 08:58N 52°06' E 004°16'0 0.0
2018-Dec-03 08:28N 52°06' E 004°16'0 0.0
2018-Dec-03 07:58N 52°06' E 004°16'0 0.0
2018-Dec-03 07:28N 52°06' E 004°16'0 0.0
2018-Dec-03 06:58N 52°06' E 004°16'0 0.0
2018-Dec-03 06:28N 52°06' E 004°16'0 0.0
2018-Dec-03 05:58N 52°06' E 004°16'0 0.0
2018-Dec-03 05:28N 52°06' E 004°16'0 0.0
2018-Dec-03 04:28N 52°06' E 004°16'0 0.0
2018-Dec-03 03:58N 52°06' E 004°16'0 0.0
2018-Dec-03 03:28N 52°06' E 004°16'0 0.0
2018-Dec-03 02:58N 52°06' E 004°16'0 0.0
2018-Dec-03 02:28N 52°06' E 004°16'0 0.0
2018-Dec-03 01:58N 52°06' E 004°16'0 0.0
2018-Dec-03 01:25N 52°06' E 004°16'0 0.0
2018-Dec-03 00:28N 52°06' E 004°16'0 0.0
2018-Dec-02 23:58N 52°06' E 004°16'0 0.0
2018-Dec-02 23:28N 52°06' E 004°16'0 0.0
2018-Dec-02 22:58N 52°06' E 004°16'0 0.0
2018-Dec-02 22:28N 52°06' E 004°16'0 0.0
2018-Dec-02 21:58N 52°06' E 004°16'0 0.0
2018-Dec-02 21:28N 52°06' E 004°16'0 0.0
2018-Dec-02 20:58N 52°06' E 004°16'0 0.0
2018-Dec-02 20:28N 52°06' E 004°16'0 0.0
2018-Dec-02 19:58N 52°06' E 004°16'0 0.0
2018-Dec-02 19:28N 52°06' E 004°16'0 0.0
2018-Dec-02 18:58N 52°06' E 004°16'0 0.0
2018-Dec-02 18:28N 52°06' E 004°16'0 0.0
2018-Dec-02 17:58N 52°06' E 004°16'0 0.0
2018-Dec-02 17:28N 52°06' E 004°16'0 0.0
2018-Dec-02 16:58N 52°06' E 004°16'0 0.0
2018-Dec-02 16:28N 52°06' E 004°16'0 0.0
2018-Dec-02 15:58N 52°06' E 004°16'0 0.0
2018-Dec-02 15:28N 52°06' E 004°16'0 0.0
2018-Dec-02 14:58N 52°06' E 004°16'0 0.0
2018-Dec-02 14:28N 52°06' E 004°16'0 0.0
2018-Dec-02 13:58N 52°06' E 004°16'0 0.0
2018-Dec-02 13:28N 52°06' E 004°16'0 0.0
2018-Dec-02 12:58N 52°06' E 004°16'0 0.0
2018-Dec-02 12:28N 52°06' E 004°16'0 0.0
2018-Dec-02 11:58N 52°06' E 004°16'0 0.0
2018-Dec-02 11:28N 52°06' E 004°16'0 0.0
2018-Dec-02 10:58N 52°06' E 004°16'0 0.0
2018-Dec-02 10:29N 52°06' E 004°16'0 0.0
2018-Dec-02 09:58N 52°06' E 004°16'0 0.0
2018-Dec-02 09:28N 52°06' E 004°16'0 0.0
2018-Dec-02 08:58N 52°06' E 004°16'0 0.0
2018-Dec-02 08:28N 52°06' E 004°16'0 0.0
2018-Dec-02 07:58N 52°06' E 004°16'0 0.0
2018-Dec-02 07:28N 52°06' E 004°16'0 0.0
2018-Dec-02 06:28N 52°06' E 004°16'0 0.0
2018-Dec-02 05:58N 52°06' E 004°16'0 0.0
2018-Dec-02 05:28N 52°06' E 004°16'0 0.0
2018-Dec-02 04:58N 52°06' E 004°16'0 0.0
2018-Dec-02 04:25N 52°06' E 004°16'0 0.0
2018-Dec-02 03:58N 52°06' E 004°16'0 0.0
2018-Dec-02 03:28N 52°06' E 004°16'0 0.0
2018-Dec-02 02:58N 52°06' E 004°16'0 0.0
2018-Dec-02 02:28N 52°06' E 004°16'0 0.0
2018-Dec-02 01:58N 52°06' E 004°16'0 0.0
2018-Dec-02 01:28N 52°06' E 004°16'0 0.0
2018-Dec-02 00:58N 52°06' E 004°16'0 0.0
2018-Dec-02 00:28N 52°06' E 004°16'0 0.0
2018-Dec-01 23:58N 52°06' E 004°16'0 0.0
2018-Dec-01 23:28N 52°06' E 004°16'0 0.0
2018-Dec-01 22:58N 52°06' E 004°16'0 0.0
2018-Dec-01 22:28N 52°06' E 004°16'0 0.0
2018-Dec-01 21:58N 52°06' E 004°16'0 0.0
2018-Dec-01 21:28N 52°06' E 004°16'0 0.0
2018-Dec-01 20:55N 52°06' E 004°16'0 0.0
2018-Dec-01 20:28N 52°06' E 004°16'0 0.0
2018-Dec-01 19:58N 52°06' E 004°16'0 0.0
2018-Dec-01 19:28N 52°06' E 004°16'0 0.0
2018-Dec-01 18:58N 52°06' E 004°16'0 0.0
2018-Dec-01 18:28N 52°06' E 004°16'0 0.0
2018-Dec-01 17:58N 52°06' E 004°16'0 0.0
2018-Dec-01 17:28N 52°06' E 004°16'0 0.0
2018-Dec-01 16:58N 52°06' E 004°16'0 0.0
2018-Dec-01 16:28N 52°06' E 004°16'0 0.0
2018-Dec-01 15:58N 52°06' E 004°16'0 0.0
2018-Dec-01 15:28N 52°06' E 004°16'0 0.0
2018-Dec-01 14:58N 52°06' E 004°16'0 0.0
2018-Dec-01 14:28N 52°06' E 004°16'0 0.0
2018-Dec-01 13:58N 52°06' E 004°16'0 0.0
2018-Dec-01 13:28N 52°06' E 004°16'0 0.0
2018-Dec-01 12:58N 52°06' E 004°16'0 0.0
2018-Dec-01 12:28N 52°06' E 004°16'0 0.0
2018-Dec-01 11:58N 52°06' E 004°16'0 0.0
2018-Dec-01 11:28N 52°06' E 004°16'0 0.0
2018-Dec-01 10:58N 52°06' E 004°16'0 0.0
2018-Dec-01 10:28N 52°06' E 004°16'0 0.0
2018-Dec-01 09:58N 52°06' E 004°16'0 0.0
2018-Dec-01 09:28N 52°06' E 004°16'0 0.0
2018-Dec-01 08:58N 52°06' E 004°16'0 0.0
2018-Dec-01 08:28N 52°06' E 004°16'0 0.0
2018-Dec-01 07:58N 52°06' E 004°16'0 0.0
2018-Dec-01 07:28N 52°06' E 004°16'0 0.0
2018-Dec-01 06:58N 52°06' E 004°16'0 0.0
2018-Dec-01 06:28N 52°06' E 004°16'0 0.0
2018-Dec-01 05:58N 52°06' E 004°16'0 0.0
2018-Dec-01 05:28N 52°06' E 004°16'0 0.0
2018-Dec-01 04:58N 52°06' E 004°16'0 0.0
2018-Dec-01 04:28N 52°06' E 004°16'0 0.0
2018-Dec-01 03:58N 52°06' E 004°16'0 0.0
2018-Dec-01 03:28N 52°06' E 004°16'0 0.0
2018-Dec-01 02:58N 52°06' E 004°16'0 0.0
2018-Dec-01 02:28N 52°06' E 004°16'0 0.0
2018-Dec-01 01:58N 52°06' E 004°16'0 0.0
2018-Dec-01 01:28N 52°06' E 004°16'0 0.0
2018-Dec-01 00:58N 52°06' E 004°16'0 0.0
2018-Dec-01 00:28N 52°06' E 004°16'0 0.0
2018-Nov-30 23:58N 52°06' E 004°16'0 0.0
2018-Nov-30 23:28N 52°06' E 004°16'0 0.0
2018-Nov-30 22:58N 52°06' E 004°16'0 0.0
2018-Nov-30 22:28N 52°06' E 004°16'0 0.0
2018-Nov-30 21:58N 52°06' E 004°16'0 0.0
2018-Nov-30 21:28N 52°06' E 004°16'0 0.0
2018-Nov-30 20:58N 52°06' E 004°16'0 0.0
2018-Nov-30 20:28N 52°06' E 004°16'0 0.0
2018-Nov-30 19:58N 52°06' E 004°16'  

Dump ship's entire track history